AFL123 EDDH-ULLI
Flight info
| Callsign | AFL123 |
|---|---|
| Flight time | 2h 5m |
| Altitude | 31000 |
| Route | LUGEG3G LUGEG P605 MOSAT/N0443F270 P605 MALIV M611 EVONA P862 NETNA DCT MONUS T653 DITEL/K0826F270 T653 OBANA OBANA1V |
| Aircraft | B738/M-SDE2E3FGHIRWXY/LB1 |
Departure
| Time | 2026-04-22 13:56 |
|---|---|
| Airport | Hamburg Helmut Schmidt Airport (EDDH) |
Arrival
| Time | 2026-04-22 16:02 |
|---|---|
| Airport | Pulkovo Airport (ULLI) |
| Time | Latitude | Longitude | Altitude | Speed | Heading |
|---|---|---|---|---|---|
| 2026-04-22 13:23 | 53.62944 | 10.00283 | 48 ft | 0 kts | 123° |
| 2026-04-22 13:49 | 53.62946 | 10.00279 | 47 ft | 3 kts | 123° |
| 2026-04-22 13:49 | 53.62961 | 10.00241 | 47 ft | 4 kts | 127° |
| 2026-04-22 13:49 | 53.62972 | 10.00218 | 43 ft | 4 kts | 131° |
| 2026-04-22 13:50 | 53.62991 | 10.00186 | 45 ft | 4 kts | 144° |
| 2026-04-22 13:50 | 53.63014 | 10.00169 | 46 ft | 4 kts | 188° |
| 2026-04-22 13:50 | 53.63022 | 10.00173 | 44 ft | 0 kts | 212° |
| 2026-04-22 13:53 | 53.63021 | 10.00172 | 45 ft | 3 kts | 212° |
| 2026-04-22 13:53 | 53.62995 | 10.00144 | 47 ft | 7 kts | 212° |
| 2026-04-22 13:54 | 53.62950 | 10.00077 | 47 ft | 9 kts | 237° |
| 2026-04-22 13:54 | 53.62933 | 10.00030 | 45 ft | 2 kts | 239° |
| 2026-04-22 13:54 | 53.62925 | 10.00007 | 47 ft | 2 kts | 240° |
| 2026-04-22 13:54 | 53.62916 | 9.99978 | 47 ft | 5 kts | 243° |
| 2026-04-22 13:55 | 53.62880 | 9.99859 | 46 ft | 18 kts | 243° |
| 2026-04-22 13:55 | 53.62898 | 9.99719 | 44 ft | 0 kts | 332° |
| 2026-04-22 13:56 | 53.62932 | 9.99689 | 44 ft | 24 kts | 333° |
| 2026-04-22 13:56 | 53.63307 | 9.99365 | 46 ft | 95 kts | 333° |
| 2026-04-22 13:56 | 53.64073 | 9.98697 | 62 ft | 150 kts | 329° |
| 2026-04-22 13:56 | 53.65024 | 9.97844 | 663 ft | 156 kts | 330° |
| 2026-04-22 13:57 | 53.65999 | 9.97001 | 1402 ft | 161 kts | 330° |
| 2026-04-22 13:57 | 53.66965 | 9.96122 | 2201 ft | 166 kts | 332° |
| 2026-04-22 13:57 | 53.68106 | 9.95170 | 2575 ft | 196 kts | 333° |
| 2026-04-22 13:57 | 53.69449 | 9.94558 | 3200 ft | 206 kts | 359° |
| 2026-04-22 13:58 | 53.70882 | 9.94978 | 3914 ft | 211 kts | 7° |
| 2026-04-22 13:58 | 53.72342 | 9.94898 | 4705 ft | 210 kts | 347° |
| 2026-04-22 13:58 | 53.73796 | 9.94610 | 5456 ft | 214 kts | 10° |
| 2026-04-22 13:58 | 53.75136 | 9.95867 | 5816 ft | 240 kts | 48° |
| 2026-04-22 13:59 | 53.75861 | 9.98551 | 6209 ft | 264 kts | 73° |
| 2026-04-22 13:59 | 53.76265 | 10.01625 | 6930 ft | 270 kts | 74° |
| 2026-04-22 13:59 | 53.76784 | 10.04679 | 7745 ft | 270 kts | 68° |
| 2026-04-22 13:59 | 53.77465 | 10.07654 | 8524 ft | 273 kts | 65° |
| 2026-04-22 14:00 | 53.78224 | 10.10613 | 9319 ft | 275 kts | 63° |
| 2026-04-22 14:00 | 53.79021 | 10.13571 | 10115 ft | 278 kts | 63° |
| 2026-04-22 14:00 | 53.79848 | 10.16559 | 10739 ft | 286 kts | 62° |
| 2026-04-22 14:00 | 53.80866 | 10.19595 | 10911 ft | 308 kts | 50° |
| 2026-04-22 14:01 | 53.82374 | 10.22320 | 11105 ft | 328 kts | 43° |
| 2026-04-22 14:01 | 53.84053 | 10.25098 | 11270 ft | 348 kts | 44° |
| 2026-04-22 14:01 | 53.85726 | 10.28217 | 11471 ft | 366 kts | 49° |
| 2026-04-22 14:01 | 53.87309 | 10.31662 | 11960 ft | 374 kts | 52° |
| 2026-04-22 14:02 | 53.88817 | 10.35273 | 12626 ft | 376 kts | 53° |
| 2026-04-22 14:02 | 53.90303 | 10.38869 | 13324 ft | 378 kts | 53° |
| 2026-04-22 14:02 | 53.91841 | 10.42503 | 14031 ft | 381 kts | 53° |
| 2026-04-22 14:02 | 53.93425 | 10.46133 | 14664 ft | 384 kts | 52° |
| 2026-04-22 14:03 | 53.95044 | 10.49758 | 15301 ft | 387 kts | 51° |
| 2026-04-22 14:03 | 53.96691 | 10.53389 | 15933 ft | 390 kts | 51° |
| 2026-04-22 14:03 | 53.98364 | 10.57045 | 16548 ft | 393 kts | 51° |
| 2026-04-22 14:03 | 54.00052 | 10.60723 | 17176 ft | 396 kts | 51° |
| 2026-04-22 14:04 | 54.01754 | 10.64432 | 17770 ft | 399 kts | 51° |
| 2026-04-22 14:04 | 54.03468 | 10.68171 | 18358 ft | 403 kts | 51° |
| 2026-04-22 14:04 | 54.05197 | 10.71950 | 18902 ft | 406 kts | 52° |
| 2026-04-22 14:04 | 54.06936 | 10.75759 | 19413 ft | 409 kts | 52° |
| 2026-04-22 14:05 | 54.08684 | 10.79598 | 19958 ft | 411 kts | 52° |
| 2026-04-22 14:05 | 54.10442 | 10.83463 | 20451 ft | 414 kts | 52° |
| 2026-04-22 14:05 | 54.13986 | 10.91277 | 21406 ft | 420 kts | 52° |
| 2026-04-22 14:06 | 54.15777 | 10.95233 | 21865 ft | 423 kts | 52° |
| 2026-04-22 14:06 | 54.17579 | 10.99220 | 22313 ft | 425 kts | 52° |
| 2026-04-22 14:06 | 54.19386 | 11.03226 | 22751 ft | 428 kts | 52° |
| 2026-04-22 14:06 | 54.21207 | 11.07269 | 23167 ft | 431 kts | 52° |
| 2026-04-22 14:07 | 54.23039 | 11.11342 | 23587 ft | 434 kts | 53° |
| 2026-04-22 14:07 | 54.24881 | 11.15445 | 23971 ft | 436 kts | 53° |
| 2026-04-22 14:07 | 54.26734 | 11.19578 | 24299 ft | 439 kts | 53° |
| 2026-04-22 14:07 | 54.28592 | 11.23730 | 24650 ft | 440 kts | 53° |
| 2026-04-22 14:08 | 54.30453 | 11.27896 | 24992 ft | 442 kts | 53° |
| 2026-04-22 14:08 | 54.32321 | 11.32086 | 25327 ft | 443 kts | 53° |
| 2026-04-22 14:08 | 54.34195 | 11.36296 | 25642 ft | 445 kts | 53° |
| 2026-04-22 14:08 | 54.36076 | 11.40528 | 25933 ft | 447 kts | 53° |
| 2026-04-22 14:09 | 54.37963 | 11.44780 | 26242 ft | 449 kts | 54° |
| 2026-04-22 14:09 | 54.39854 | 11.49049 | 26553 ft | 450 kts | 54° |
| 2026-04-22 14:09 | 54.41748 | 11.53334 | 26956 ft | 449 kts | 54° |
| 2026-04-22 14:09 | 54.43628 | 11.57590 | 27466 ft | 446 kts | 54° |
| 2026-04-22 14:10 | 54.45491 | 11.61818 | 27976 ft | 442 kts | 54° |
| 2026-04-22 14:10 | 54.47353 | 11.66005 | 28451 ft | 441 kts | 53° |
| 2026-04-22 14:10 | 54.49287 | 11.70098 | 28890 ft | 440 kts | 52° |
| 2026-04-22 14:10 | 54.51301 | 11.74063 | 29347 ft | 439 kts | 50° |
| 2026-04-22 14:11 | 54.53372 | 11.77891 | 29847 ft | 436 kts | 49° |
| 2026-04-22 14:11 | 54.55464 | 11.81571 | 30333 ft | 434 kts | 48° |
| 2026-04-22 14:11 | 54.57570 | 11.85283 | 30747 ft | 431 kts | 49° |
| 2026-04-22 14:11 | 54.59614 | 11.89028 | 31186 ft | 427 kts | 51° |
| 2026-04-22 14:12 | 54.61609 | 11.92823 | 31273 ft | 427 kts | 52° |
| 2026-04-22 14:12 | 54.65501 | 12.00505 | 31292 ft | 423 kts | 53° |
| 2026-04-22 14:13 | 54.69337 | 12.08187 | 31299 ft | 422 kts | 53° |
| 2026-04-22 14:13 | 54.73171 | 12.15852 | 31292 ft | 421 kts | 53° |
| 2026-04-22 14:14 | 54.77001 | 12.23503 | 31287 ft | 420 kts | 53° |
| 2026-04-22 14:14 | 54.80817 | 12.31145 | 31288 ft | 419 kts | 53° |
| 2026-04-22 14:15 | 54.84619 | 12.38782 | 31284 ft | 418 kts | 53° |
| 2026-04-22 14:15 | 54.88403 | 12.46408 | 31278 ft | 417 kts | 53° |
| 2026-04-22 14:16 | 54.92176 | 12.54038 | 31274 ft | 416 kts | 53° |
| 2026-04-22 14:16 | 54.95933 | 12.61659 | 31275 ft | 415 kts | 54° |
| 2026-04-22 14:17 | 54.99680 | 12.69282 | 31271 ft | 414 kts | 54° |
| 2026-04-22 14:17 | 55.03383 | 12.76933 | 31269 ft | 412 kts | 55° |
| 2026-04-22 14:18 | 55.06976 | 12.84692 | 31268 ft | 411 kts | 55° |
| 2026-04-22 14:18 | 55.10688 | 12.92296 | 31265 ft | 411 kts | 53° |
| 2026-04-22 14:19 | 55.14437 | 12.99830 | 31262 ft | 410 kts | 54° |
| 2026-04-22 14:19 | 55.17380 | 13.08165 | 31253 ft | 400 kts | 75° |
| 2026-04-22 14:20 | 55.19258 | 13.22295 | 31221 ft | 404 kts | 61° |
| 2026-04-22 14:20 | 55.21118 | 13.26030 | 31251 ft | 412 kts | 48° |
| 2026-04-22 14:20 | 55.23265 | 13.29381 | 31244 ft | 414 kts | 47° |
| 2026-04-22 14:21 | 55.26059 | 13.37564 | 31254 ft | 397 kts | 87° |
| 2026-04-22 14:21 | 55.25873 | 13.42398 | 31244 ft | 399 kts | 96° |
| 2026-04-22 14:22 | 55.25666 | 13.52056 | 31204 ft | 401 kts | 71° |
| 2026-04-22 14:22 | 55.27077 | 13.56281 | 31233 ft | 407 kts | 57° |
| 2026-04-22 14:22 | 55.30438 | 13.64285 | 31184 ft | 404 kts | 70° |
| 2026-04-22 14:23 | 55.30830 | 13.69072 | 31248 ft | 400 kts | 93° |
| 2026-04-22 14:23 | 55.30059 | 13.78793 | 31207 ft | 403 kts | 91° |
| 2026-04-22 14:23 | 55.30601 | 13.83533 | 31217 ft | 404 kts | 62° |
| 2026-04-22 14:24 | 55.32548 | 13.87153 | 31225 ft | 418 kts | 40° |
| 2026-04-22 14:24 | 55.37436 | 13.92791 | 31178 ft | 415 kts | 49° |
| 2026-04-22 14:24 | 55.38835 | 13.97018 | 31217 ft | 400 kts | 78° |
| 2026-04-22 14:25 | 55.39069 | 14.01886 | 31219 ft | 401 kts | 88° |
| 2026-04-22 14:25 | 55.39710 | 14.11547 | 31172 ft | 405 kts | 61° |
| 2026-04-22 14:25 | 55.41661 | 14.15173 | 31214 ft | 416 kts | 43° |
| 2026-04-22 14:26 | 55.44023 | 14.18162 | 31196 ft | 419 kts | 41° |
| 2026-04-22 14:26 | 55.46272 | 14.21360 | 31154 ft | 411 kts | 54° |
| 2026-04-22 14:26 | 55.47402 | 14.25821 | 31218 ft | 401 kts | 82° |
| 2026-04-22 14:27 | 55.47486 | 14.35675 | 31178 ft | 403 kts | 86° |
| 2026-04-22 14:27 | 55.48137 | 14.40442 | 31191 ft | 404 kts | 66° |
| 2026-04-22 14:27 | 55.49546 | 14.44744 | 31175 ft | 407 kts | 60° |
| 2026-04-22 14:28 | 55.52145 | 14.53513 | 31177 ft | 403 kts | 78° |
| 2026-04-22 14:28 | 55.52833 | 14.63344 | 31179 ft | 404 kts | 82° |
| 2026-04-22 14:28 | 55.53599 | 14.68084 | 31164 ft | 406 kts | 62° |
| 2026-04-22 14:29 | 55.55243 | 14.72152 | 31167 ft | 410 kts | 54° |
| 2026-04-22 14:29 | 55.58573 | 14.80242 | 31141 ft | 405 kts | 74° |
| 2026-04-22 14:29 | 55.58925 | 14.85151 | 31182 ft | 405 kts | 88° |
| 2026-04-22 14:30 | 55.58866 | 14.90139 | 31178 ft | 406 kts | 89° |
| 2026-04-22 14:30 | 55.58980 | 14.95116 | 31135 ft | 405 kts | 76° |
| 2026-04-22 14:30 | 55.60308 | 14.99462 | 31203 ft | 408 kts | 52° |
| 2026-04-22 14:31 | 55.64315 | 15.06690 | 31152 ft | 411 kts | 54° |
| 2026-04-22 14:31 | 55.65496 | 15.11172 | 31179 ft | 404 kts | 81° |
| 2026-04-22 14:31 | 55.65609 | 15.16158 | 31159 ft | 407 kts | 89° |
| 2026-04-22 14:32 | 55.66055 | 15.26047 | 31141 ft | 406 kts | 63° |
| 2026-04-22 14:32 | 55.67742 | 15.30064 | 31165 ft | 411 kts | 50° |
| 2026-04-22 14:32 | 55.69714 | 15.33742 | 31156 ft | 412 kts | 50° |
| 2026-04-22 14:32 | 55.71440 | 15.37744 | 31120 ft | 408 kts | 68° |
| 2026-04-22 14:33 | 55.71937 | 15.42637 | 31184 ft | 408 kts | 88° |
| 2026-04-22 14:33 | 55.71760 | 15.52667 | 31130 ft | 409 kts | 81° |
| 2026-04-22 14:33 | 55.72817 | 15.57272 | 31180 ft | 408 kts | 55° |
| 2026-04-22 14:34 | 55.74726 | 15.61031 | 31153 ft | 412 kts | 48° |
| 2026-04-22 14:34 | 55.78220 | 15.68922 | 31126 ft | 408 kts | 76° |
| 2026-04-22 14:34 | 55.78415 | 15.73941 | 31157 ft | 411 kts | 90° |
| 2026-04-22 14:35 | 55.78227 | 15.79014 | 31154 ft | 412 kts | 91° |
| 2026-04-22 14:35 | 55.79092 | 15.87155 | 31175 ft | 408 kts | 56° |
| 2026-04-22 14:36 | 55.82995 | 15.94577 | 31149 ft | 412 kts | 50° |
| 2026-04-22 14:36 | 55.84489 | 15.98848 | 31124 ft | 409 kts | 75° |
| 2026-04-22 14:36 | 55.84699 | 16.03811 | 31164 ft | 412 kts | 90° |
| 2026-04-22 14:37 | 55.84546 | 16.13998 | 31115 ft | 410 kts | 75° |
| 2026-04-22 14:37 | 55.85868 | 16.18420 | 31186 ft | 409 kts | 51° |
| 2026-04-22 14:37 | 55.87853 | 16.22094 | 31155 ft | 412 kts | 47° |
| 2026-04-22 14:38 | 55.91037 | 16.30286 | 31156 ft | 410 kts | 81° |
| 2026-04-22 14:38 | 55.90744 | 16.40520 | 31149 ft | 416 kts | 91° |
| 2026-04-22 14:38 | 55.90987 | 16.45570 | 31123 ft | 410 kts | 67° |
| 2026-04-22 14:39 | 55.92598 | 16.49710 | 31182 ft | 411 kts | 47° |
| 2026-04-22 14:39 | 55.96653 | 16.56928 | 31120 ft | 411 kts | 57° |
| 2026-04-22 14:40 | 55.97144 | 16.66829 | 31173 ft | 420 kts | 97° |
| 2026-04-22 14:40 | 55.96539 | 16.71938 | 31153 ft | 420 kts | 96° |
| 2026-04-22 14:40 | 55.96551 | 16.77053 | 31134 ft | 411 kts | 70° |
| 2026-04-22 14:40 | 55.97889 | 16.81505 | 31165 ft | 410 kts | 55° |
| 2026-04-22 14:41 | 56.01164 | 16.89830 | 31123 ft | 411 kts | 68° |
| 2026-04-22 14:41 | 56.01708 | 16.94839 | 31174 ft | 415 kts | 84° |
| 2026-04-22 14:41 | 56.01731 | 17.00017 | 31154 ft | 417 kts | 87° |
| 2026-04-22 14:42 | 56.02931 | 17.09811 | 31157 ft | 410 kts | 49° |
| 2026-04-22 14:42 | 56.05180 | 17.12955 | 31176 ft | 415 kts | 34° |
| 2026-04-22 14:42 | 56.07729 | 17.15453 | 31147 ft | 418 kts | 31° |
| 2026-04-22 14:43 | 56.12690 | 17.20786 | 31125 ft | 414 kts | 46° |
| 2026-04-22 14:43 | 56.16059 | 17.29071 | 31142 ft | 412 kts | 57° |
| 2026-04-22 14:44 | 56.19355 | 17.37501 | 31135 ft | 413 kts | 52° |
| 2026-04-22 14:44 | 56.22997 | 17.45475 | 31139 ft | 413 kts | 51° |
| 2026-04-22 14:45 | 56.26517 | 17.53626 | 31135 ft | 413 kts | 53° |
| 2026-04-22 14:45 | 56.29898 | 17.61987 | 31135 ft | 413 kts | 54° |
| 2026-04-22 14:46 | 56.33216 | 17.70422 | 31129 ft | 413 kts | 54° |
| 2026-04-22 14:46 | 56.36502 | 17.78836 | 31123 ft | 413 kts | 54° |
| 2026-04-22 14:47 | 56.39804 | 17.87304 | 31120 ft | 413 kts | 54° |
| 2026-04-22 14:47 | 56.43104 | 17.95789 | 31122 ft | 413 kts | 54° |
| 2026-04-22 14:48 | 56.46401 | 18.04290 | 31122 ft | 413 kts | 54° |
| 2026-04-22 14:48 | 56.49690 | 18.12799 | 31117 ft | 413 kts | 54° |
| 2026-04-22 14:49 | 56.52973 | 18.21325 | 31113 ft | 413 kts | 54° |
| 2026-04-22 14:49 | 56.56252 | 18.29869 | 31110 ft | 413 kts | 54° |
| 2026-04-22 14:50 | 56.59521 | 18.38418 | 31110 ft | 413 kts | 54° |
| 2026-04-22 14:50 | 56.62788 | 18.46992 | 31107 ft | 413 kts | 54° |
| 2026-04-22 14:51 | 56.66049 | 18.55580 | 31104 ft | 413 kts | 54° |
| 2026-04-22 14:51 | 56.69307 | 18.64192 | 31102 ft | 413 kts | 54° |
| 2026-04-22 14:52 | 56.72557 | 18.72813 | 31102 ft | 413 kts | 54° |
| 2026-04-22 14:52 | 56.75803 | 18.81454 | 31100 ft | 413 kts | 54° |
| 2026-04-22 14:53 | 56.79045 | 18.90114 | 31096 ft | 413 kts | 54° |
| 2026-04-22 14:53 | 56.82283 | 18.98795 | 31095 ft | 414 kts | 54° |
| 2026-04-22 14:54 | 56.85515 | 19.07493 | 31094 ft | 414 kts | 54° |
| 2026-04-22 14:54 | 56.88742 | 19.16207 | 31093 ft | 414 kts | 54° |
| 2026-04-22 14:55 | 56.91962 | 19.24932 | 31089 ft | 414 kts | 54° |
| 2026-04-22 14:55 | 56.95180 | 19.33686 | 31088 ft | 414 kts | 54° |
| 2026-04-22 14:56 | 56.98392 | 19.42456 | 31085 ft | 414 kts | 54° |
| 2026-04-22 14:56 | 57.01578 | 19.51185 | 31083 ft | 414 kts | 54° |
| 2026-04-22 14:57 | 57.04778 | 19.59985 | 31082 ft | 414 kts | 54° |
| 2026-04-22 14:57 | 57.07976 | 19.68810 | 31081 ft | 415 kts | 54° |
| 2026-04-22 14:58 | 57.11164 | 19.77643 | 31075 ft | 415 kts | 53° |
| 2026-04-22 14:58 | 57.14346 | 19.86485 | 31079 ft | 415 kts | 53° |
| 2026-04-22 14:59 | 57.17469 | 19.95424 | 31071 ft | 416 kts | 56° |
| 2026-04-22 14:59 | 57.20237 | 20.04807 | 31077 ft | 418 kts | 60° |
| 2026-04-22 15:00 | 57.22680 | 20.14551 | 31073 ft | 419 kts | 62° |
| 2026-04-22 15:00 | 57.25021 | 20.24410 | 31069 ft | 419 kts | 62° |
| 2026-04-22 15:01 | 57.27457 | 20.34187 | 31064 ft | 419 kts | 60° |
| 2026-04-22 15:01 | 57.29958 | 20.43907 | 31064 ft | 419 kts | 60° |
| 2026-04-22 15:02 | 57.32477 | 20.53633 | 31063 ft | 419 kts | 60° |
| 2026-04-22 15:02 | 57.34989 | 20.63373 | 31065 ft | 419 kts | 60° |
| 2026-04-22 15:03 | 57.37491 | 20.73129 | 31063 ft | 420 kts | 60° |
| 2026-04-22 15:03 | 57.39847 | 20.82365 | 31058 ft | 420 kts | 60° |
| 2026-04-22 15:04 | 57.42337 | 20.92169 | 31056 ft | 420 kts | 60° |
| 2026-04-22 15:04 | 57.44823 | 21.01998 | 31051 ft | 421 kts | 60° |
| 2026-04-22 15:05 | 57.47304 | 21.11852 | 31048 ft | 422 kts | 60° |
| 2026-04-22 15:05 | 57.49782 | 21.21737 | 31050 ft | 422 kts | 60° |
| 2026-04-22 15:06 | 57.52240 | 21.31587 | 31043 ft | 423 kts | 60° |
| 2026-04-22 15:06 | 57.54725 | 21.41589 | 31044 ft | 423 kts | 60° |
| 2026-04-22 15:07 | 57.57188 | 21.51547 | 31043 ft | 424 kts | 60° |
| 2026-04-22 15:07 | 57.59647 | 21.61538 | 31037 ft | 424 kts | 60° |
| 2026-04-22 15:08 | 57.62102 | 21.71556 | 31030 ft | 425 kts | 60° |
| 2026-04-22 15:08 | 57.64550 | 21.81593 | 31023 ft | 425 kts | 60° |
| 2026-04-22 15:09 | 57.66994 | 21.91650 | 31016 ft | 425 kts | 60° |
| 2026-04-22 15:09 | 57.69427 | 22.01721 | 31005 ft | 426 kts | 60° |
| 2026-04-22 15:10 | 57.71830 | 22.11770 | 31006 ft | 426 kts | 60° |
| 2026-04-22 15:10 | 57.74238 | 22.21894 | 30998 ft | 426 kts | 60° |
| 2026-04-22 15:11 | 57.76640 | 22.32037 | 30986 ft | 426 kts | 60° |
| 2026-04-22 15:11 | 57.79038 | 22.42203 | 30983 ft | 426 kts | 60° |
| 2026-04-22 15:12 | 57.81429 | 22.52384 | 30983 ft | 426 kts | 60° |
| 2026-04-22 15:12 | 57.83810 | 22.62578 | 30977 ft | 426 kts | 60° |
| 2026-04-22 15:13 | 57.86182 | 22.72771 | 30963 ft | 426 kts | 60° |
| 2026-04-22 15:13 | 57.88564 | 22.82972 | 30952 ft | 426 kts | 59° |
| 2026-04-22 15:14 | 57.91101 | 22.93013 | 30948 ft | 424 kts | 58° |
| 2026-04-22 15:14 | 57.93702 | 23.02966 | 30942 ft | 424 kts | 58° |
| 2026-04-22 15:15 | 57.96279 | 23.12964 | 30934 ft | 424 kts | 58° |
| 2026-04-22 15:15 | 57.98827 | 23.23010 | 30929 ft | 425 kts | 58° |
| 2026-04-22 15:16 | 58.01354 | 23.33067 | 30923 ft | 425 kts | 58° |
| 2026-04-22 15:16 | 58.03877 | 23.43160 | 30915 ft | 425 kts | 58° |
| 2026-04-22 15:17 | 58.06390 | 23.53255 | 30912 ft | 425 kts | 58° |
| 2026-04-22 15:17 | 58.08900 | 23.63378 | 30902 ft | 425 kts | 58° |
| 2026-04-22 15:18 | 58.11402 | 23.73517 | 30894 ft | 425 kts | 58° |
| 2026-04-22 15:18 | 58.13476 | 23.81958 | 30889 ft | 425 kts | 58° |
| 2026-04-22 15:19 | 58.15962 | 23.92120 | 30883 ft | 425 kts | 58° |
| 2026-04-22 15:19 | 58.18442 | 24.02304 | 30873 ft | 425 kts | 58° |
| 2026-04-22 15:20 | 58.20911 | 24.12492 | 30862 ft | 425 kts | 58° |
| 2026-04-22 15:20 | 58.23373 | 24.22697 | 30844 ft | 425 kts | 58° |
| 2026-04-22 15:21 | 58.25825 | 24.32906 | 30839 ft | 425 kts | 57° |
| 2026-04-22 15:21 | 58.28269 | 24.43133 | 30832 ft | 425 kts | 57° |
| 2026-04-22 15:22 | 58.30703 | 24.53365 | 30838 ft | 425 kts | 57° |
| 2026-04-22 15:22 | 58.33128 | 24.63607 | 30839 ft | 425 kts | 57° |
| 2026-04-22 15:23 | 58.35544 | 24.73863 | 30838 ft | 424 kts | 57° |
| 2026-04-22 15:23 | 58.37951 | 24.84126 | 30832 ft | 424 kts | 57° |
| 2026-04-22 15:24 | 58.40332 | 24.94330 | 30827 ft | 424 kts | 57° |
| 2026-04-22 15:24 | 58.42720 | 25.04608 | 30815 ft | 424 kts | 57° |
| 2026-04-22 15:25 | 58.45096 | 25.14889 | 30805 ft | 423 kts | 57° |
| 2026-04-22 15:25 | 58.47464 | 25.25179 | 30801 ft | 423 kts | 57° |
| 2026-04-22 15:26 | 58.49820 | 25.35471 | 30797 ft | 423 kts | 57° |
| 2026-04-22 15:26 | 58.52168 | 25.45777 | 30789 ft | 422 kts | 57° |
| 2026-04-22 15:27 | 58.54507 | 25.56093 | 30788 ft | 422 kts | 57° |
| 2026-04-22 15:27 | 58.56836 | 25.66413 | 30778 ft | 422 kts | 57° |
| 2026-04-22 15:28 | 58.59157 | 25.76749 | 30776 ft | 422 kts | 57° |
| 2026-04-22 15:28 | 58.61469 | 25.87097 | 30768 ft | 422 kts | 57° |
| 2026-04-22 15:29 | 58.63772 | 25.97454 | 30763 ft | 422 kts | 57° |
| 2026-04-22 15:30 | 58.67208 | 26.13006 | 30761 ft | 422 kts | 57° |
| 2026-04-22 15:30 | 58.69487 | 26.23382 | 30753 ft | 422 kts | 57° |
| 2026-04-22 15:31 | 58.71759 | 26.33782 | 30752 ft | 422 kts | 57° |
| 2026-04-22 15:31 | 58.74023 | 26.44195 | 30746 ft | 422 kts | 57° |
| 2026-04-22 15:32 | 58.76263 | 26.54550 | 30739 ft | 422 kts | 56° |
| 2026-04-22 15:32 | 58.78524 | 26.65054 | 30735 ft | 422 kts | 56° |
| 2026-04-22 15:33 | 58.80762 | 26.75506 | 30742 ft | 422 kts | 56° |
| 2026-04-22 15:33 | 58.82993 | 26.85975 | 30718 ft | 422 kts | 56° |
| 2026-04-22 15:34 | 58.85213 | 26.96446 | 30720 ft | 421 kts | 56° |
| 2026-04-22 15:34 | 58.87425 | 27.06936 | 30712 ft | 421 kts | 56° |
| 2026-04-22 15:35 | 58.89629 | 27.17432 | 30709 ft | 421 kts | 56° |
| 2026-04-22 15:35 | 58.91824 | 27.27856 | 30710 ft | 420 kts | 55° |
| 2026-04-22 15:36 | 58.94311 | 27.38070 | 30705 ft | 414 kts | 51° |
| 2026-04-22 15:36 | 58.97069 | 27.47789 | 30705 ft | 411 kts | 49° |
| 2026-04-22 15:37 | 58.99862 | 27.57494 | 30701 ft | 414 kts | 50° |
| 2026-04-22 15:37 | 59.02538 | 27.67410 | 30699 ft | 416 kts | 51° |
| 2026-04-22 15:38 | 59.05190 | 27.77395 | 30697 ft | 415 kts | 50° |
| 2026-04-22 15:38 | 59.09635 | 27.91532 | 30692 ft | 409 kts | 45° |
| 2026-04-22 15:39 | 59.12715 | 28.00865 | 30688 ft | 410 kts | 46° |
| 2026-04-22 15:39 | 59.15749 | 28.10294 | 30686 ft | 412 kts | 46° |
| 2026-04-22 15:40 | 59.17258 | 28.15037 | 30571 ft | 413 kts | 46° |
| 2026-04-22 15:40 | 59.18787 | 28.19848 | 29877 ft | 417 kts | 46° |
| 2026-04-22 15:40 | 59.20304 | 28.24652 | 28982 ft | 415 kts | 46° |
| 2026-04-22 15:40 | 59.21815 | 28.29449 | 28107 ft | 414 kts | 46° |
| 2026-04-22 15:41 | 59.23315 | 28.34214 | 27305 ft | 411 kts | 46° |
| 2026-04-22 15:41 | 59.24817 | 28.38976 | 26396 ft | 412 kts | 46° |
| 2026-04-22 15:41 | 59.26327 | 28.43766 | 25414 ft | 416 kts | 46° |
| 2026-04-22 15:41 | 59.27824 | 28.48625 | 24638 ft | 417 kts | 48° |
| 2026-04-22 15:42 | 59.29196 | 28.53677 | 23631 ft | 427 kts | 51° |
| 2026-04-22 15:42 | 59.30465 | 28.59019 | 22409 ft | 439 kts | 54° |
| 2026-04-22 15:42 | 59.31620 | 28.64564 | 21655 ft | 438 kts | 58° |
| 2026-04-22 15:42 | 59.32657 | 28.70173 | 20887 ft | 437 kts | 60° |
| 2026-04-22 15:43 | 59.33594 | 28.75820 | 20168 ft | 435 kts | 63° |
| 2026-04-22 15:43 | 59.34439 | 28.81499 | 19465 ft | 433 kts | 64° |
| 2026-04-22 15:43 | 59.35273 | 28.87134 | 18771 ft | 428 kts | 64° |
| 2026-04-22 15:43 | 59.36145 | 28.92700 | 18059 ft | 425 kts | 63° |
| 2026-04-22 15:44 | 59.37061 | 28.98183 | 17277 ft | 422 kts | 63° |
| 2026-04-22 15:44 | 59.38006 | 29.03591 | 16554 ft | 417 kts | 63° |
| 2026-04-22 15:44 | 59.38963 | 29.08929 | 15855 ft | 413 kts | 63° |
| 2026-04-22 15:44 | 59.39923 | 29.14217 | 15163 ft | 409 kts | 63° |
| 2026-04-22 15:45 | 59.40875 | 29.19453 | 14497 ft | 406 kts | 63° |
| 2026-04-22 15:45 | 59.41819 | 29.24659 | 13829 ft | 403 kts | 63° |
| 2026-04-22 15:45 | 59.42752 | 29.29824 | 13106 ft | 401 kts | 63° |
| 2026-04-22 15:45 | 59.43677 | 29.34960 | 12388 ft | 397 kts | 64° |
| 2026-04-22 15:46 | 59.44589 | 29.40054 | 11705 ft | 393 kts | 64° |
| 2026-04-22 15:46 | 59.45488 | 29.45094 | 11068 ft | 388 kts | 64° |
| 2026-04-22 15:46 | 59.46367 | 29.50048 | 10686 ft | 377 kts | 65° |
| 2026-04-22 15:46 | 59.47205 | 29.54822 | 10528 ft | 361 kts | 64° |
| 2026-04-22 15:47 | 59.48006 | 29.59399 | 10376 ft | 347 kts | 64° |
| 2026-04-22 15:47 | 59.48779 | 29.63809 | 10227 ft | 334 kts | 64° |
| 2026-04-22 15:47 | 59.49524 | 29.68057 | 10087 ft | 323 kts | 64° |
| 2026-04-22 15:47 | 59.50245 | 29.72162 | 9956 ft | 312 kts | 64° |
| 2026-04-22 15:48 | 59.50942 | 29.76135 | 9823 ft | 302 kts | 64° |
| 2026-04-22 15:48 | 59.51609 | 29.79939 | 9699 ft | 293 kts | 64° |
| 2026-04-22 15:48 | 59.52264 | 29.83678 | 9549 ft | 286 kts | 64° |
| 2026-04-22 15:48 | 59.52918 | 29.87412 | 9209 ft | 284 kts | 64° |
| 2026-04-22 15:49 | 59.53552 | 29.91031 | 8922 ft | 282 kts | 64° |
| 2026-04-22 15:49 | 59.54187 | 29.94674 | 8621 ft | 280 kts | 64° |
| 2026-04-22 15:49 | 59.54824 | 29.98337 | 8324 ft | 278 kts | 64° |
| 2026-04-22 15:49 | 59.55446 | 30.01931 | 8038 ft | 276 kts | 64° |
| 2026-04-22 15:50 | 59.56054 | 30.05453 | 7747 ft | 274 kts | 64° |
| 2026-04-22 15:50 | 59.56667 | 30.09006 | 7464 ft | 273 kts | 64° |
| 2026-04-22 15:50 | 59.57273 | 30.12533 | 7192 ft | 271 kts | 64° |
| 2026-04-22 15:50 | 59.57877 | 30.16052 | 6906 ft | 269 kts | 64° |
| 2026-04-22 15:51 | 59.58473 | 30.19532 | 6656 ft | 266 kts | 63° |
| 2026-04-22 15:51 | 59.59058 | 30.22968 | 6448 ft | 262 kts | 63° |
| 2026-04-22 15:51 | 59.59633 | 30.26347 | 6245 ft | 258 kts | 63° |
| 2026-04-22 15:51 | 59.60200 | 30.29679 | 6039 ft | 254 kts | 63° |
| 2026-04-22 15:52 | 59.60757 | 30.32959 | 5831 ft | 250 kts | 63° |
| 2026-04-22 15:52 | 59.61302 | 30.36176 | 5643 ft | 242 kts | 63° |
| 2026-04-22 15:52 | 59.61836 | 30.39319 | 5110 ft | 246 kts | 63° |
| 2026-04-22 15:52 | 59.62378 | 30.42504 | 4746 ft | 244 kts | 63° |
| 2026-04-22 15:53 | 59.62906 | 30.45639 | 4461 ft | 237 kts | 63° |
| 2026-04-22 15:53 | 59.63415 | 30.48668 | 4228 ft | 227 kts | 63° |
| 2026-04-22 15:53 | 59.63902 | 30.51572 | 3987 ft | 218 kts | 63° |
| 2026-04-22 15:53 | 59.64367 | 30.54352 | 3771 ft | 208 kts | 62° |
| 2026-04-22 15:54 | 59.64808 | 30.56999 | 3586 ft | 198 kts | 62° |
| 2026-04-22 15:54 | 59.65234 | 30.59551 | 3382 ft | 191 kts | 62° |
| 2026-04-22 15:54 | 59.65632 | 30.61951 | 3390 ft | 181 kts | 61° |
| 2026-04-22 15:54 | 59.66052 | 30.64267 | 3377 ft | 175 kts | 53° |
| 2026-04-22 15:55 | 59.66839 | 30.65790 | 3337 ft | 149 kts | 7° |
| 2026-04-22 15:55 | 59.67836 | 30.65794 | 3377 ft | 145 kts | 346° |
| 2026-04-22 15:55 | 59.68733 | 30.64980 | 3255 ft | 145 kts | 322° |
| 2026-04-22 15:55 | 59.69517 | 30.63746 | 3157 ft | 144 kts | 325° |
| 2026-04-22 15:56 | 59.70334 | 30.62642 | 3045 ft | 141 kts | 326° |
| 2026-04-22 15:56 | 59.71137 | 30.61563 | 2948 ft | 139 kts | 326° |
| 2026-04-22 15:56 | 59.71937 | 30.60476 | 2853 ft | 140 kts | 326° |
| 2026-04-22 15:56 | 59.72741 | 30.59372 | 2744 ft | 141 kts | 326° |
| 2026-04-22 15:57 | 59.73543 | 30.58264 | 2631 ft | 140 kts | 325° |
| 2026-04-22 15:57 | 59.74312 | 30.57091 | 2523 ft | 140 kts | 316° |
| 2026-04-22 15:57 | 59.74807 | 30.55428 | 2442 ft | 141 kts | 295° |
| 2026-04-22 15:57 | 59.75110 | 30.53629 | 2318 ft | 134 kts | 297° |
| 2026-04-22 15:58 | 59.75453 | 30.51923 | 2240 ft | 134 kts | 296° |
| 2026-04-22 15:58 | 59.75751 | 30.50226 | 2166 ft | 127 kts | 294° |
| 2026-04-22 15:58 | 59.76015 | 30.48562 | 2037 ft | 126 kts | 293° |
| 2026-04-22 15:58 | 59.76271 | 30.46887 | 2006 ft | 126 kts | 293° |
| 2026-04-22 15:59 | 59.76524 | 30.45241 | 1964 ft | 125 kts | 294° |
| 2026-04-22 15:59 | 59.76790 | 30.43577 | 1813 ft | 126 kts | 292° |
| 2026-04-22 15:59 | 59.77039 | 30.41925 | 1645 ft | 124 kts | 291° |
| 2026-04-22 15:59 | 59.77282 | 30.40291 | 1477 ft | 123 kts | 291° |
| 2026-04-22 16:00 | 59.77440 | 30.39206 | 1365 ft | 124 kts | 290° |
| 2026-04-22 16:00 | 59.77764 | 30.36983 | 1126 ft | 127 kts | 290° |
| 2026-04-22 16:00 | 59.78011 | 30.35298 | 920 ft | 127 kts | 289° |
| 2026-04-22 16:00 | 59.78259 | 30.33610 | 745 ft | 128 kts | 288° |
| 2026-04-22 16:01 | 59.78511 | 30.31890 | 537 ft | 132 kts | 287° |
| 2026-04-22 16:01 | 59.78772 | 30.30119 | 337 ft | 134 kts | 286° |
| 2026-04-22 16:01 | 59.79026 | 30.28373 | 163 ft | 134 kts | 286° |
| 2026-04-22 16:01 | 59.79281 | 30.26639 | 84 ft | 123 kts | 284° |
| 2026-04-22 16:02 | 59.79485 | 30.25232 | 83 ft | 89 kts | 286° |
| 2026-04-22 16:02 | 59.79627 | 30.24275 | 85 ft | 61 kts | 286° |
| 2026-04-22 16:02 | 59.79724 | 30.23629 | 82 ft | 33 kts | 286° |
| 2026-04-22 16:02 | 59.79777 | 30.23358 | 81 ft | 20 kts | 300° |
| 2026-04-22 16:03 | 59.79860 | 30.23144 | 83 ft | 18 kts | 314° |
| 2026-04-22 16:03 | 59.79939 | 30.23030 | 71 ft | 10 kts | 358° |
| 2026-04-22 16:03 | 59.79976 | 30.23128 | 78 ft | 10 kts | 99° |
| 2026-04-22 16:03 | 59.79956 | 30.23261 | 68 ft | 10 kts | 106° |
| 2026-04-22 16:04 | 59.79930 | 30.23438 | 78 ft | 19 kts | 107° |
| 2026-04-22 16:04 | 59.79901 | 30.23632 | 71 ft | 23 kts | 106° |
| 2026-04-22 16:04 | 59.79841 | 30.24038 | 83 ft | 23 kts | 107° |
| 2026-04-22 16:04 | 59.79797 | 30.24333 | 81 ft | 22 kts | 106° |
| 2026-04-22 16:05 | 59.79768 | 30.24525 | 85 ft | 22 kts | 107° |
| 2026-04-22 16:05 | 59.79713 | 30.24901 | 83 ft | 21 kts | 106° |
| 2026-04-22 16:05 | 59.79685 | 30.25084 | 81 ft | 20 kts | 107° |
| 2026-04-22 16:05 | 59.79648 | 30.25347 | 83 ft | 20 kts | 105° |
| 2026-04-22 16:06 | 59.79609 | 30.25607 | 84 ft | 19 kts | 107° |
| 2026-04-22 16:06 | 59.79571 | 30.25852 | 85 ft | 18 kts | 106° |
| 2026-04-22 16:06 | 59.79536 | 30.26092 | 85 ft | 18 kts | 106° |
| 2026-04-22 16:06 | 59.79506 | 30.26293 | 83 ft | 11 kts | 101° |
| 2026-04-22 16:07 | 59.79560 | 30.26385 | 81 ft | 12 kts | 17° |
| 2026-04-22 16:07 | 59.79656 | 30.26443 | 80 ft | 18 kts | 16° |
| 2026-04-22 16:07 | 59.79776 | 30.26514 | 83 ft | 18 kts | 17° |
| 2026-04-22 16:07 | 59.79893 | 30.26582 | 83 ft | 17 kts | 17° |
| 2026-04-22 16:08 | 59.79999 | 30.26646 | 80 ft | 13 kts | 16° |
| 2026-04-22 16:08 | 59.80074 | 30.26690 | 82 ft | 8 kts | 17° |
| 2026-04-22 16:08 | 59.80099 | 30.26775 | 80 ft | 8 kts | 92° |
| 2026-04-22 16:08 | 59.80097 | 30.26854 | 80 ft | 3 kts | 94° |
| 2026-04-22 16:09 | 59.80096 | 30.26864 | 80 ft | 0 kts | 94° |